createdAt,value
2022-11-20T00:02:12.532Z,99976.03
2022-11-20T00:05:15.808Z,99978.69
2022-11-20T00:08:18.355Z,99971.59
2022-11-20T00:11:23.450Z,99962.25
2022-11-20T00:14:26.048Z,99961.75
2022-11-20T00:17:29.175Z,99967.69
2022-11-20T00:20:31.741Z,99971.78
2022-11-20T00:23:35.240Z,99968.47
2022-11-20T00:26:38.113Z,99973.22
2022-11-20T00:29:41.101Z,99988.41
2022-11-20T00:32:43.451Z,99992.13
2022-11-20T00:35:46.533Z,99986.78
2022-11-20T00:38:56.520Z,99986.00
2022-11-20T00:41:59.796Z,100003.53
2022-11-20T00:45:02.338Z,100009.50
2022-11-20T00:48:05.696Z,100008.97
2022-11-20T00:51:08.255Z,99990.72
2022-11-20T00:54:11.371Z,99985.09
2022-11-20T00:57:13.942Z,99987.06
2022-11-20T01:00:17.140Z,99976.13
2022-11-20T01:03:24.236Z,99975.88
2022-11-20T01:06:38.482Z,99984.41
2022-11-20T01:09:40.962Z,99971.22
2022-11-20T01:12:44.233Z,99978.87
2022-11-20T01:15:46.787Z,99980.59
2022-11-20T01:18:53.059Z,99988.13
2022-11-20T01:21:55.631Z,99994.16
2022-11-20T01:24:58.677Z,99986.44
2022-11-20T01:28:01.163Z,99987.16
2022-11-20T01:31:19.432Z,99984.09
2022-11-20T01:34:23.383Z,99988.09
2022-11-20T01:37:26.501Z,99980.38
2022-11-20T01:40:28.946Z,99971.31
2022-11-20T01:43:32.027Z,99955.94
2022-11-20T01:46:37.898Z,99957.91
2022-11-20T01:49:51.584Z,99962.31
2022-11-20T01:53:00.330Z,99958.88
2022-11-20T01:56:08.556Z,99957.91
2022-11-20T01:59:14.327Z,99952.66
2022-11-20T02:02:17.425Z,99950.16
2022-11-20T02:05:43.087Z,99954.97
2022-11-20T02:08:45.793Z,99947.56
2022-11-20T02:11:48.631Z,99950.56
2022-11-20T02:14:51.444Z,99961.16
2022-11-20T02:17:54.941Z,99966.59
2022-11-20T02:21:07.482Z,99962.78
2022-11-20T02:24:18.126Z,99965.53
2022-11-20T02:27:22.011Z,99958.50
2022-11-20T02:30:25.112Z,99965.75
2022-11-20T02:33:27.985Z,99961.81
2022-11-20T02:36:33.141Z,99954.69
2022-11-20T02:39:35.879Z,99936.19
2022-11-20T02:42:38.758Z,99928.12
2022-11-20T02:45:41.583Z,99933.28
2022-11-20T02:48:44.347Z,99931.69
2022-11-20T02:51:47.086Z,99939.13
2022-11-20T02:54:49.905Z,99936.84
2022-11-20T02:57:52.692Z,99941.44
2022-11-20T03:00:55.559Z,99937.09
2022-11-20T03:03:59.562Z,99928.47
2022-11-20T03:07:02.447Z,99924.72
2022-11-20T03:10:06.211Z,99919.28
2022-11-20T03:13:09.007Z,99914.12
2022-11-20T03:16:14.481Z,99916.28
2022-11-20T03:19:19.678Z,99916.28
2022-11-20T03:22:22.595Z,99922.06
2022-11-20T03:25:25.361Z,99931.22
2022-11-20T03:28:28.140Z,99941.25
2022-11-20T03:31:38.923Z,99940.28
2022-11-20T03:34:41.831Z,99947.56
2022-11-20T03:37:44.746Z,99944.94
2022-11-20T03:40:47.532Z,99933.19
2022-11-20T03:43:50.995Z,99933.31
2022-11-20T03:46:53.773Z,99911.41
2022-11-20T03:49:56.563Z,99922.16
2022-11-20T03:52:59.330Z,99922.59
2022-11-20T03:56:02.184Z,99918.22
2022-11-20T03:59:05.414Z,99927.94
2022-11-20T04:02:08.470Z,99922.31
2022-11-20T04:05:11.481Z,99922.13
2022-11-20T04:08:14.048Z,99912.47
2022-11-20T04:11:27.514Z,99917.97
2022-11-20T04:14:30.039Z,99914.78
2022-11-20T04:17:33.091Z,99921.94
2022-11-20T04:20:36.466Z,99907.59
2022-11-20T04:23:40.127Z,99895.00
2022-11-20T04:26:42.790Z,99898.81
2022-11-20T04:29:45.831Z,99884.75
2022-11-20T04:32:48.285Z,99891.72
2022-11-20T04:35:51.341Z,99891.91
2022-11-20T04:38:57.362Z,99892.00
2022-11-20T04:42:19.190Z,99897.50
2022-11-20T04:45:22.999Z,99899.47
2022-11-20T04:48:28.034Z,99901.78
2022-11-20T04:51:30.570Z,99898.31
2022-11-20T04:54:33.691Z,99882.94
2022-11-20T04:57:36.182Z,99863.28
2022-11-20T05:00:39.344Z,99868.59
2022-11-20T05:03:43.605Z,99862.44
2022-11-20T05:06:46.708Z,99861.84
2022-11-20T05:09:49.186Z,99865.03
2022-11-20T05:12:52.612Z,99876.63
2022-11-20T05:15:55.099Z,99891.66
2022-11-20T05:18:58.432Z,99884.09
2022-11-20T05:22:00.943Z,99875.78
2022-11-20T05:25:04.170Z,99879.41
2022-11-20T05:28:06.836Z,99865.19
2022-11-20T05:31:15.831Z,99857.56
2022-11-20T05:34:18.270Z,99848.63
2022-11-20T05:37:21.462Z,99851.50
2022-11-20T05:40:23.975Z,99839.75
2022-11-20T05:43:27.180Z,99842.78
2022-11-20T05:46:29.918Z,99839.38
2022-11-20T05:49:33.452Z,99848.47
2022-11-20T05:52:35.928Z,99857.16
2022-11-20T05:55:38.977Z,99861.63
2022-11-20T05:58:41.792Z,99859.31
2022-11-20T06:01:44.859Z,99874.25
2022-11-20T06:04:47.677Z,99873.56
2022-11-20T06:07:50.527Z,99872.81
2022-11-20T06:10:53.355Z,99870.31
2022-11-20T06:13:56.357Z,99869.44
2022-11-20T06:16:59.347Z,99888.81
2022-11-20T06:20:02.536Z,99886.16
2022-11-20T06:23:05.283Z,99868.19
2022-11-20T06:26:13.437Z,99861.41
2022-11-20T06:29:16.271Z,99866.56
2022-11-20T06:32:19.061Z,99871.13
2022-11-20T06:35:22.015Z,99868.84
2022-11-20T06:38:28.772Z,99887.00
2022-11-20T06:41:31.568Z,99899.28
2022-11-20T06:44:34.469Z,99905.41
2022-11-20T06:47:37.458Z,99913.50
2022-11-20T06:50:40.328Z,99918.03
2022-11-20T06:53:43.094Z,99911.50
2022-11-20T06:56:49.173Z,99908.59
2022-11-20T06:59:51.970Z,99912.06
2022-11-20T07:02:54.963Z,99907.31
2022-11-20T07:06:00.954Z,99889.75
2022-11-20T07:09:06.365Z,99890.53
2022-11-20T07:12:11.356Z,99886.59
2022-11-20T07:15:14.156Z,99889.88
2022-11-20T07:18:16.960Z,99896.84
2022-11-20T07:21:19.769Z,99896.75
2022-11-20T07:24:22.580Z,99903.88
2022-11-20T07:27:25.380Z,99910.72
2022-11-20T07:30:31.359Z,99909.91
2022-11-20T07:33:34.163Z,99915.09
2022-11-20T07:36:37.007Z,99915.81
2022-11-20T07:39:39.876Z,99925.09
2022-11-20T07:42:56.667Z,99927.69
2022-11-20T07:46:00.236Z,99926.56
2022-11-20T07:49:02.891Z,99928.56
2022-11-20T07:52:05.619Z,99922.75
2022-11-20T07:55:09.694Z,99932.06
2022-11-20T07:58:12.616Z,99936.31
2022-11-20T08:01:15.582Z,99924.50
2022-11-20T08:04:18.699Z,99928.56
2022-11-20T08:07:22.007Z,99914.75
2022-11-20T08:10:26.691Z,99908.13
2022-11-20T08:13:48.001Z,99906.09
2022-11-20T08:16:51.150Z,99903.22
2022-11-20T08:19:53.612Z,99908.91
2022-11-20T08:23:06.615Z,99916.47
2022-11-20T08:26:09.417Z,99914.56
2022-11-20T08:29:12.495Z,99906.97
2022-11-20T08:32:15.094Z,99904.09
2022-11-20T08:35:18.341Z,99911.50
2022-11-20T08:38:20.839Z,99901.44
2022-11-20T08:41:29.556Z,99898.94
2022-11-20T08:44:32.014Z,99899.91
2022-11-20T08:47:35.047Z,99915.09
2022-11-20T08:50:37.565Z,99917.66
2022-11-20T08:53:41.370Z,99913.69
2022-11-20T08:56:43.902Z,99913.12
2022-11-20T09:03:09.785Z,99917.19
2022-11-20T09:06:13.230Z,99927.91
2022-11-20T09:09:15.627Z,99929.31
2022-11-20T09:12:18.691Z,99930.94
2022-11-20T09:15:21.133Z,99938.31
2022-11-20T09:18:24.905Z,99934.22
2022-11-20T09:21:27.496Z,99933.37
2022-11-20T09:24:30.982Z,99939.66
2022-11-20T09:27:33.643Z,99954.56
2022-11-20T09:30:37.026Z,99942.56
2022-11-20T09:33:39.558Z,99939.16
2022-11-20T09:36:42.596Z,99933.37
2022-11-20T09:39:45.068Z,99931.63
2022-11-20T09:42:59.735Z,99923.94
2022-11-20T09:46:23.816Z,99927.78
2022-11-20T09:49:37.847Z,99917.22
2022-11-20T09:52:57.782Z,99915.72
2022-11-20T09:56:03.547Z,99918.63
2022-11-20T09:59:08.689Z,99914.00
2022-11-20T10:02:24.123Z,99907.88
2022-11-20T10:05:32.454Z,99908.69
2022-11-20T10:09:05.783Z,99904.09
2022-11-20T10:12:20.555Z,99902.91
2022-11-20T10:15:55.811Z,99896.78
2022-11-20T10:19:39.615Z,99883.44
2022-11-20T10:23:22.741Z,99882.13
2022-11-20T10:26:59.428Z,99870.53
2022-11-20T10:30:14.811Z,99857.25
2022-11-20T10:33:22.665Z,99857.81
2022-11-20T10:36:32.034Z,99856.37
2022-11-20T10:39:40.959Z,99860.00
2022-11-20T10:42:48.369Z,99855.78
2022-11-20T10:45:58.414Z,99858.00
2022-11-20T10:49:01.230Z,99853.72
2022-11-20T10:52:22.198Z,99845.94
2022-11-20T10:55:38.920Z,99841.50
2022-11-20T10:58:51.781Z,99846.84
2022-11-20T11:01:54.531Z,99856.25
2022-11-20T11:04:58.647Z,99854.88
2022-11-20T11:08:01.538Z,99870.75
2022-11-20T11:11:11.372Z,99870.94
2022-11-20T11:14:16.167Z,99873.03
2022-11-20T11:17:31.628Z,99876.69
2022-11-20T11:20:34.485Z,99871.47
2022-11-20T11:23:40.654Z,99872.41
2022-11-20T11:26:57.265Z,99870.66
2022-11-20T11:30:15.271Z,99866.56
2022-11-20T11:33:30.078Z,99868.16
2022-11-20T11:36:34.500Z,99869.81
2022-11-20T11:39:42.243Z,99866.22
2022-11-20T11:42:51.327Z,99865.41
2022-11-20T11:45:56.236Z,99857.66
2022-11-20T11:49:04.746Z,99854.41
2022-11-20T11:52:17.258Z,99853.28
2022-11-20T11:55:29.871Z,99857.09
2022-11-20T11:58:56.504Z,99844.31
2022-11-20T12:02:05.283Z,99838.19
2022-11-20T12:05:18.939Z,99836.53
2022-11-20T12:08:26.069Z,99838.81
2022-11-20T12:11:52.174Z,99836.28
2022-11-20T12:14:57.181Z,99840.16
2022-11-20T12:18:00.968Z,99850.44
2022-11-20T12:21:21.342Z,99845.66
2022-11-20T12:24:56.399Z,99847.09
2022-11-20T12:28:10.996Z,99849.16
2022-11-20T12:31:26.349Z,99832.87
2022-11-20T12:34:50.913Z,99827.06
2022-11-20T12:38:27.984Z,99823.56
2022-11-20T12:42:01.672Z,99825.06
2022-11-20T12:45:16.013Z,99825.44
2022-11-20T12:48:34.588Z,99832.97
2022-11-20T12:51:40.839Z,99827.56
2022-11-20T12:55:15.774Z,99842.91
2022-11-20T12:58:28.851Z,99838.09
2022-11-20T13:01:48.733Z,99842.44
2022-11-20T13:05:04.275Z,99843.88
2022-11-20T13:08:23.518Z,99848.03
2022-11-20T13:11:39.149Z,99838.56
2022-11-20T13:15:02.264Z,99842.00
2022-11-20T13:18:09.084Z,99848.91
2022-11-20T13:21:24.377Z,99850.25
2022-11-20T13:24:31.207Z,99850.16
2022-11-20T13:27:33.739Z,99841.50
2022-11-20T13:30:38.193Z,99833.13
2022-11-20T13:33:40.712Z,99834.16
2022-11-20T13:36:52.664Z,99830.97
2022-11-20T13:40:08.954Z,99826.72
2022-11-20T13:43:22.451Z,99828.59
2022-11-20T13:46:44.922Z,99817.66
2022-11-20T13:49:49.425Z,99803.44
2022-11-20T13:52:58.176Z,99807.59
2022-11-20T13:56:39.799Z,99803.81
2022-11-20T13:59:58.288Z,99811.31
2022-11-20T14:03:07.274Z,99806.81
2022-11-20T14:06:27.011Z,99805.75
2022-11-20T14:09:32.386Z,99803.78
2022-11-20T14:12:35.397Z,99802.56
2022-11-20T14:15:44.742Z,99802.19
2022-11-20T14:18:47.783Z,99801.16
2022-11-20T14:21:56.089Z,99807.03
2022-11-20T14:25:28.092Z,99809.19
2022-11-20T14:28:32.337Z,99813.06
2022-11-20T14:31:35.177Z,99809.41
2022-11-20T14:34:41.580Z,99822.19
2022-11-20T14:37:44.507Z,99820.38
2022-11-20T14:40:47.356Z,99836.72
2022-11-20T14:43:58.069Z,99840.91
2022-11-20T14:47:03.577Z,99842.44
2022-11-20T14:50:17.134Z,99842.16
2022-11-20T14:53:25.383Z,99840.28
2022-11-20T14:56:28.273Z,99841.97
2022-11-20T14:59:35.877Z,99839.84
2022-11-20T15:02:47.251Z,99837.75
2022-11-20T15:05:52.176Z,99845.59
2022-11-20T15:08:55.267Z,99849.72
2022-11-20T15:12:01.285Z,99855.59
2022-11-20T15:15:06.201Z,99854.72
2022-11-20T15:18:14.278Z,99857.88
2022-11-20T15:21:20.061Z,99851.69
2022-11-20T15:24:23.041Z,99850.41
2022-11-20T15:27:26.245Z,99851.00
2022-11-20T15:30:29.256Z,99854.94
2022-11-20T15:33:32.914Z,99847.81
2022-11-20T15:36:35.694Z,99857.81
2022-11-20T15:39:38.729Z,99857.66
2022-11-20T15:43:01.688Z,99852.19
2022-11-20T15:46:10.189Z,99861.84
2022-11-20T15:49:19.905Z,99859.56
2022-11-20T15:52:23.099Z,99871.50
2022-11-20T15:55:26.059Z,99865.44
2022-11-20T15:58:28.989Z,99858.38
2022-11-20T16:01:31.867Z,99856.56
2022-11-20T16:04:34.691Z,99855.69
2022-11-20T16:07:37.652Z,99859.81
2022-11-20T16:10:43.999Z,99858.81
2022-11-20T16:14:05.692Z,99864.97
2022-11-20T16:17:08.609Z,99871.09
2022-11-20T16:20:14.577Z,99863.84
2022-11-20T16:23:18.210Z,99856.22
2022-11-20T16:26:21.811Z,99856.63
2022-11-20T16:29:24.485Z,99848.91
2022-11-20T16:32:27.225Z,99851.34
2022-11-20T16:35:31.855Z,99860.78
2022-11-20T16:38:34.769Z,99854.78
2022-11-20T16:41:37.656Z,99853.81
2022-11-20T16:44:42.027Z,99851.09
2022-11-20T16:47:44.976Z,99858.66
2022-11-20T16:50:50.630Z,99844.78
2022-11-20T16:53:57.874Z,99840.75
2022-11-20T16:57:00.723Z,99837.56
2022-11-20T17:00:04.322Z,99841.72
2022-11-20T17:03:07.684Z,99843.22
2022-11-20T17:06:21.040Z,99831.75
2022-11-20T17:09:23.890Z,99832.34
2022-11-20T17:12:26.648Z,99828.81
2022-11-20T17:15:29.505Z,99821.88
2022-11-20T17:18:32.550Z,99813.03
2022-11-20T17:21:39.366Z,99812.94
2022-11-20T17:24:42.481Z,99812.03
2022-11-20T17:27:45.285Z,99805.06
2022-11-20T17:30:48.338Z,99797.16
2022-11-20T17:33:51.458Z,99806.47
2022-11-20T17:36:55.549Z,99810.72
2022-11-20T17:39:58.713Z,99802.84
2022-11-20T17:43:01.725Z,99802.69
2022-11-20T17:46:06.781Z,99798.47
2022-11-20T17:49:09.786Z,99794.09
2022-11-20T17:52:13.006Z,99781.94
2022-11-20T17:55:16.154Z,99782.66
2022-11-20T17:58:19.083Z,99790.25
2022-11-20T18:01:22.707Z,99791.91
2022-11-20T18:04:26.439Z,99796.28
2022-11-20T18:07:29.421Z,99792.50
2022-11-20T18:10:32.660Z,99789.91
2022-11-20T18:13:55.188Z,99803.59
2022-11-20T18:17:06.922Z,99807.06
2022-11-20T18:23:34.143Z,99830.78
2022-11-20T18:26:43.862Z,99824.72
2022-11-20T18:29:48.814Z,99824.41
2022-11-20T18:32:51.414Z,99838.97
2022-11-20T18:35:54.657Z,99833.56
2022-11-20T18:39:00.027Z,99838.66
2022-11-20T18:42:21.920Z,99851.50
2022-11-20T18:45:25.994Z,99854.78
2022-11-20T18:48:32.120Z,99857.19
2022-11-20T18:51:37.029Z,99859.62
2022-11-20T18:54:41.063Z,99869.09
2022-11-20T18:57:43.718Z,99866.50
2022-11-20T19:00:46.830Z,99865.69
2022-11-20T19:03:49.405Z,99853.66
2022-11-20T19:06:56.350Z,99854.38
2022-11-20T19:10:03.418Z,99864.00
2022-11-20T19:13:07.270Z,99859.72
2022-11-20T19:16:18.060Z,99862.22
2022-11-20T19:19:21.587Z,99869.00
2022-11-20T19:22:24.473Z,99868.12
2022-11-20T19:25:27.691Z,99862.13
2022-11-20T19:28:34.747Z,99858.66
2022-11-20T19:31:37.853Z,99867.25
2022-11-20T19:34:40.586Z,99859.88
2022-11-20T19:37:43.726Z,99846.56
2022-11-20T19:40:46.302Z,99836.88
2022-11-20T19:43:50.042Z,99832.38
2022-11-20T19:46:52.727Z,99838.25
2022-11-20T19:49:55.870Z,99840.75
2022-11-20T19:52:58.843Z,99836.34
2022-11-20T19:56:02.324Z,99832.94
2022-11-20T19:59:04.925Z,99841.19
2022-11-20T20:02:11.450Z,99822.94
2022-11-20T20:05:14.375Z,99819.41
2022-11-20T20:08:17.321Z,99830.53
2022-11-20T20:11:21.420Z,99824.47
2022-11-20T20:14:24.305Z,99822.53
2022-11-20T20:17:27.130Z,99813.09
2022-11-20T20:20:30.045Z,99797.53
2022-11-20T20:23:33.157Z,99790.72
2022-11-20T20:26:36.146Z,99793.97
2022-11-20T20:29:39.094Z,99796.69
2022-11-20T20:32:41.941Z,99809.78
2022-11-20T20:35:45.339Z,99806.31
2022-11-20T20:38:48.411Z,99798.56
2022-11-20T20:41:51.247Z,99803.81
2022-11-20T20:45:11.151Z,99802.19
2022-11-20T20:48:18.080Z,99799.53
2022-11-20T20:51:21.257Z,99803.06
2022-11-20T20:54:24.338Z,99791.84
2022-11-20T20:57:28.659Z,99796.69
2022-11-20T21:00:31.562Z,99799.06
2022-11-20T21:03:36.543Z,99805.63
2022-11-20T21:06:39.380Z,99792.63
2022-11-20T21:09:42.199Z,99796.88
2022-11-20T21:12:44.999Z,99798.34
2022-11-20T21:15:50.198Z,99801.84
2022-11-20T21:18:53.011Z,99812.16
2022-11-20T21:21:58.824Z,99807.00
2022-11-20T21:25:01.676Z,99815.53
2022-11-20T21:28:04.460Z,99804.16
2022-11-20T21:31:10.410Z,99799.81
2022-11-20T21:34:14.379Z,99802.31
2022-11-20T21:37:17.173Z,99809.97
2022-11-20T21:40:20.616Z,99812.41
2022-11-20T21:43:23.397Z,99808.72
2022-11-20T21:46:26.486Z,99813.88
2022-11-20T21:49:29.389Z,99823.97
2022-11-20T21:52:32.207Z,99825.41
2022-11-20T21:55:35.317Z,99814.25
2022-11-20T21:58:40.227Z,99806.28
2022-11-20T22:01:43.201Z,99806.28
2022-11-20T22:04:46.290Z,99800.22
2022-11-20T22:07:48.749Z,99810.72
2022-11-20T22:10:55.932Z,99803.63
2022-11-20T22:14:18.016Z,99803.47
2022-11-20T22:17:41.299Z,99800.97
2022-11-20T22:20:43.867Z,99801.84
2022-11-20T22:23:47.167Z,99795.97
2022-11-20T22:26:50.089Z,99782.81
2022-11-20T22:29:53.063Z,99779.25
2022-11-20T22:32:56.446Z,99780.75
2022-11-20T22:36:04.535Z,99778.19
2022-11-20T22:39:07.370Z,99784.09
2022-11-20T22:42:10.649Z,99763.09
2022-11-20T22:45:14.093Z,99763.69
2022-11-20T22:48:17.182Z,99768.09
2022-11-20T22:51:22.605Z,99768.44
2022-11-20T22:54:25.981Z,99755.28
2022-11-20T22:57:29.028Z,99748.50
2022-11-20T23:00:32.460Z,99752.62
2022-11-20T23:03:35.195Z,99750.28
2022-11-20T23:06:38.887Z,99748.38
2022-11-20T23:09:41.336Z,99740.91
2022-11-20T23:12:44.426Z,99748.66
2022-11-20T23:15:46.879Z,99739.63
2022-11-20T23:18:58.331Z,99736.97
2022-11-20T23:22:00.783Z,99728.25
2022-11-20T23:25:04.094Z,99727.22
2022-11-20T23:28:06.611Z,99740.22
2022-11-20T23:31:10.878Z,99741.75
2022-11-20T23:34:13.372Z,99736.50
2022-11-20T23:37:16.421Z,99748.28
2022-11-20T23:40:18.974Z,99743.59
2022-11-20T23:43:22.741Z,99742.50
2022-11-20T23:46:25.734Z,99751.16
2022-11-20T23:49:28.748Z,99751.88
2022-11-20T23:52:31.272Z,99734.06
2022-11-20T23:55:34.748Z,99734.47
2022-11-20T23:58:38.617Z,99724.16
